createdAt,value
2019-04-25T00:01:38.352Z,18.12
2019-04-25T00:04:07.931Z,18.15
2019-04-25T00:06:39.057Z,16.87
2019-04-25T00:09:14.399Z,18.05
2019-04-25T00:11:46.543Z,18.20
2019-04-25T00:14:18.036Z,17.90
2019-04-25T00:16:47.682Z,17.85
2019-04-25T00:19:17.079Z,19.48
2019-04-25T00:21:48.843Z,17.77
2019-04-25T00:24:26.483Z,18.35
2019-04-25T00:26:55.902Z,18.92
2019-04-25T00:29:25.331Z,18.07
2019-04-25T00:31:54.745Z,18.25
2019-04-25T00:34:24.160Z,18.52
2019-04-25T00:36:58.327Z,19.55
2019-04-25T00:39:28.142Z,20.27
2019-04-25T00:41:57.606Z,19.07
2019-04-25T00:44:28.659Z,19.20
2019-04-25T00:46:58.043Z,19.27
2019-04-25T00:49:27.482Z,20.08
2019-04-25T00:51:57.058Z,19.75
2019-04-25T00:54:26.523Z,21.15
2019-04-25T00:56:55.855Z,20.85
2019-04-25T00:59:29.516Z,20.62
2019-04-25T01:02:03.373Z,20.70
2019-04-25T01:04:33.791Z,21.10
2019-04-25T01:07:03.227Z,21.70
2019-04-25T01:09:32.632Z,22.60
2019-04-25T01:12:04.082Z,20.68
2019-04-25T01:14:33.779Z,20.57
2019-04-25T01:17:04.254Z,22.10
2019-04-25T01:19:34.419Z,21.57
2019-04-25T01:22:06.406Z,21.23
2019-04-25T01:24:35.749Z,21.37
2019-04-25T01:27:05.751Z,22.05
2019-04-25T01:29:35.172Z,21.52
2019-04-25T01:32:05.346Z,22.05
2019-04-25T01:34:36.323Z,22.15
2019-04-25T01:37:10.282Z,21.73
2019-04-25T01:39:41.469Z,22.02
2019-04-25T01:42:24.924Z,21.80
2019-04-25T01:44:56.838Z,23.35
2019-04-25T01:47:28.368Z,22.22
2019-04-25T01:49:58.487Z,22.27
2019-04-25T01:52:28.030Z,22.85
2019-04-25T01:54:57.536Z,24.15
2019-04-25T01:57:27.540Z,23.57
2019-04-25T01:59:57.521Z,23.75
2019-04-25T02:02:28.598Z,22.93
2019-04-25T02:04:59.402Z,23.52
2019-04-25T02:07:29.043Z,23.50
2019-04-25T02:09:58.415Z,24.18
2019-04-25T02:12:33.524Z,23.90
2019-04-25T02:15:05.942Z,22.77
2019-04-25T02:17:34.236Z,23.77
2019-04-25T02:20:05.696Z,24.60
2019-04-25T02:22:35.703Z,23.47
2019-04-25T02:25:07.507Z,22.07
2019-04-25T02:27:36.830Z,22.62
2019-04-25T02:30:07.256Z,23.22
2019-04-25T02:32:37.200Z,21.95
2019-04-25T02:35:09.263Z,22.60
2019-04-25T02:37:39.914Z,22.73
2019-04-25T02:40:09.548Z,23.80
2019-04-25T02:42:38.901Z,24.35
2019-04-25T02:45:27.378Z,23.52
2019-04-25T02:48:14.223Z,24.32
2019-04-25T02:50:46.294Z,23.22
2019-04-25T02:53:24.020Z,24.45
2019-04-25T02:55:53.873Z,25.37
2019-04-25T02:58:24.306Z,24.65
2019-04-25T03:01:02.864Z,23.75
2019-04-25T03:03:25.279Z,24.43
2019-04-25T03:05:55.036Z,24.82
2019-04-25T03:08:24.665Z,25.97
2019-04-25T03:10:54.436Z,25.17
2019-04-25T03:13:24.602Z,26.12
2019-04-25T03:15:55.701Z,25.32
2019-04-25T03:18:26.939Z,25.95
2019-04-25T03:20:59.193Z,26.12
2019-04-25T03:23:35.155Z,25.17
2019-04-25T03:26:06.148Z,24.77
2019-04-25T03:28:37.005Z,22.10
2019-04-25T03:31:12.661Z,21.27
2019-04-25T03:33:38.480Z,18.45
2019-04-25T03:36:09.209Z,16.80
2019-04-25T03:38:39.204Z,16.15
2019-04-25T03:41:08.762Z,14.90
2019-04-25T03:43:38.320Z,13.40
2019-04-25T03:46:08.255Z,12.33
2019-04-25T03:48:37.738Z,12.18
2019-04-25T03:51:07.907Z,11.93
2019-04-25T03:53:37.531Z,11.75
2019-04-25T03:56:07.386Z,11.78
2019-04-25T03:58:37.208Z,12.03
2019-04-25T04:01:08.198Z,11.60
2019-04-25T04:03:37.748Z,11.43
2019-04-25T04:06:08.586Z,11.97
2019-04-25T04:08:38.526Z,12.23
2019-04-25T04:11:08.675Z,12.00
2019-04-25T04:13:38.180Z,11.40
2019-04-25T04:16:08.410Z,10.65
2019-04-25T04:18:44.066Z,10.88
2019-04-25T04:21:33.335Z,10.58
2019-04-25T04:24:05.234Z,10.40
2019-04-25T04:26:35.636Z,10.20
2019-04-25T04:29:05.809Z,9.68
2019-04-25T04:31:40.092Z,10.40
2019-04-25T04:34:14.329Z,10.15
2019-04-25T04:36:43.757Z,11.12
2019-04-25T04:39:16.483Z,12.18
2019-04-25T04:41:46.013Z,12.85
2019-04-25T04:44:16.235Z,13.53
2019-04-25T04:46:46.048Z,13.00
2019-04-25T04:49:15.418Z,13.22
2019-04-25T04:51:44.859Z,12.55
2019-04-25T04:54:14.662Z,11.63
2019-04-25T04:56:45.296Z,11.93
2019-04-25T04:59:15.454Z,10.90
2019-04-25T05:01:59.896Z,9.93
2019-04-25T05:04:30.956Z,8.45
2019-04-25T05:07:08.150Z,7.53
2019-04-25T05:09:37.497Z,6.78
2019-04-25T05:12:06.814Z,6.65
2019-04-25T05:14:36.155Z,5.67
2019-04-25T05:17:06.527Z,5.75
2019-04-25T05:19:36.768Z,6.08
2019-04-25T05:22:06.173Z,6.42
2019-04-25T05:24:35.524Z,5.20
2019-04-25T05:27:04.850Z,5.33
2019-04-25T05:29:34.215Z,5.53
2019-04-25T05:32:04.241Z,5.28
2019-04-25T05:34:34.445Z,5.70
2019-04-25T05:37:04.077Z,4.60
2019-04-25T05:39:34.836Z,4.17
2019-04-25T05:42:07.728Z,4.12
2019-04-25T05:44:37.207Z,4.00
2019-04-25T05:47:06.534Z,3.58
2019-04-25T05:49:35.913Z,3.42
2019-04-25T05:52:05.286Z,3.60
2019-04-25T05:54:35.254Z,4.45
2019-04-25T05:57:05.319Z,4.30
2019-04-25T05:59:36.317Z,4.05
2019-04-25T06:02:05.661Z,4.78
2019-04-25T06:04:37.479Z,3.87
2019-04-25T06:07:06.834Z,4.40
2019-04-25T06:09:39.181Z,3.70
2019-04-25T06:12:13.462Z,3.65
2019-04-25T06:14:48.430Z,4.20
2019-04-25T06:17:26.001Z,3.70
2019-04-25T06:19:56.981Z,3.77
2019-04-25T06:22:44.711Z,3.10
2019-04-25T06:25:21.124Z,3.15
2019-04-25T06:27:59.218Z,3.10
2019-04-25T06:30:29.658Z,2.67
2019-04-25T06:32:59.135Z,2.98
2019-04-25T06:35:29.427Z,2.77
2019-04-25T06:37:59.083Z,2.40
2019-04-25T06:40:30.404Z,2.17
2019-04-25T06:42:59.551Z,2.10
2019-04-25T06:45:40.778Z,2.08
2019-04-25T06:48:19.134Z,3.10
2019-04-25T06:50:50.236Z,2.15
2019-04-25T06:53:19.719Z,2.12
2019-04-25T06:55:49.287Z,2.58
2019-04-25T06:58:19.550Z,2.08
2019-04-25T07:00:57.970Z,1.90
2019-04-25T07:03:19.923Z,2.30
2019-04-25T07:05:49.259Z,2.22
2019-04-25T07:08:18.598Z,1.92
2019-04-25T07:10:48.492Z,2.05
2019-04-25T07:13:17.874Z,1.70
2019-04-25T07:15:47.925Z,1.80
2019-04-25T07:18:17.262Z,7.10
2019-04-25T07:20:46.737Z,2.33
2019-04-25T07:23:16.122Z,2.08
2019-04-25T07:25:47.163Z,2.33
2019-04-25T07:28:28.990Z,1.70
2019-04-25T07:31:16.066Z,1.50
2019-04-25T07:33:56.074Z,1.42
2019-04-25T07:36:25.777Z,5.50
2019-04-25T07:39:05.759Z,1.22
2019-04-25T07:41:27.640Z,1.40
2019-04-25T07:43:57.104Z,1.37
2019-04-25T07:46:26.505Z,1.20
2019-04-25T07:48:55.975Z,0.70
2019-04-25T07:51:26.715Z,1.70
2019-04-25T07:53:56.363Z,1.40
2019-04-25T07:56:25.804Z,1.20
2019-04-25T07:58:55.607Z,1.10
2019-04-25T08:01:25.031Z,1.35
2019-04-25T08:03:54.397Z,1.20
2019-04-25T08:06:24.267Z,1.30
2019-04-25T08:08:54.580Z,0.72
2019-04-25T08:11:24.147Z,0.68
2019-04-25T08:14:14.405Z,0.90
2019-04-25T08:16:48.927Z,0.78
2019-04-25T08:19:19.510Z,0.62
2019-04-25T08:21:49.735Z,0.90
2019-04-25T08:24:19.848Z,0.50
2019-04-25T08:26:49.334Z,0.57
2019-04-25T08:29:18.714Z,0.62
2019-04-25T08:31:48.168Z,0.55
2019-04-25T08:34:20.001Z,0.70
2019-04-25T08:36:49.388Z,0.88
2019-04-25T08:39:18.728Z,0.65
2019-04-25T08:41:48.032Z,0.90
2019-04-25T08:44:17.384Z,0.60
2019-04-25T08:46:48.720Z,1.02
2019-04-25T08:49:28.548Z,0.70
2019-04-25T08:51:59.192Z,0.95
2019-04-25T08:54:42.463Z,0.80
2019-04-25T08:57:15.333Z,0.78
2019-04-25T08:59:52.462Z,0.90
2019-04-25T09:02:38.421Z,0.72
2019-04-25T09:05:16.085Z,1.10
2019-04-25T09:07:45.687Z,1.22
2019-04-25T09:10:15.201Z,1.20
2019-04-25T09:12:45.377Z,0.80
2019-04-25T09:15:15.061Z,1.15
2019-04-25T09:17:46.920Z,1.10
2019-04-25T09:20:15.907Z,1.30
2019-04-25T09:22:45.552Z,1.15
2019-04-25T09:25:15.996Z,1.20
2019-04-25T09:27:47.078Z,1.20
2019-04-25T09:30:22.135Z,1.07
2019-04-25T09:33:30.255Z,1.17
2019-04-25T09:40:00.432Z,1.20
2019-04-25T09:42:41.826Z,1.37
2019-04-25T09:52:10.842Z,2.08
2019-04-25T09:54:48.317Z,1.70
2019-04-25T09:57:23.345Z,1.67
2019-04-25T09:59:53.239Z,1.17
2019-04-25T10:02:23.008Z,1.00
2019-04-25T10:04:52.428Z,0.80
2019-04-25T10:07:21.841Z,1.05
2019-04-25T10:09:51.419Z,1.20
2019-04-25T10:12:23.110Z,0.90
2019-04-25T10:14:58.644Z,0.90
2019-04-25T10:17:27.993Z,0.88
2019-04-25T10:19:57.433Z,0.78
2019-04-25T10:22:27.829Z,0.60
2019-04-25T10:25:00.560Z,0.57
2019-04-25T10:27:28.424Z,0.90
2019-04-25T10:29:57.768Z,0.80
2019-04-25T10:32:27.221Z,0.78
2019-04-25T10:34:56.618Z,1.00
2019-04-25T10:37:26.182Z,0.70
2019-04-25T10:39:55.723Z,0.70
2019-04-25T10:42:25.759Z,2.10
2019-04-25T10:44:56.623Z,0.82
2019-04-25T10:47:26.391Z,0.60
2019-04-25T10:49:55.790Z,0.75
2019-04-25T10:52:25.108Z,1.00
2019-04-25T10:54:54.440Z,0.75
2019-04-25T10:57:24.917Z,0.80
2019-04-25T11:00:06.282Z,3.92
2019-04-25T11:02:29.357Z,0.80
2019-04-25T11:05:03.525Z,0.60
2019-04-25T11:07:33.949Z,0.50
2019-04-25T11:10:05.027Z,0.80
2019-04-25T11:12:35.035Z,0.60
2019-04-25T11:15:06.301Z,0.90
2019-04-25T11:17:36.035Z,0.50
2019-04-25T11:20:06.252Z,0.57
2019-04-25T11:22:35.579Z,0.78
2019-04-25T11:25:05.454Z,0.50
2019-04-25T11:27:35.027Z,0.70
2019-04-25T11:30:10.832Z,0.60
2019-04-25T11:32:37.258Z,1.72
2019-04-25T11:35:07.122Z,0.70
2019-04-25T11:37:36.462Z,0.78
2019-04-25T11:40:08.967Z,0.60
2019-04-25T11:42:38.332Z,0.80
2019-04-25T11:45:09.327Z,0.60
2019-04-25T11:47:38.655Z,0.60
2019-04-25T11:50:09.118Z,0.50
2019-04-25T11:52:38.551Z,0.90
2019-04-25T11:55:09.124Z,0.70
2019-04-25T11:57:38.746Z,0.40
2019-04-25T12:00:21.335Z,0.60
2019-04-25T12:02:39.931Z,0.37
2019-04-25T12:05:09.340Z,0.70
2019-04-25T12:07:38.678Z,0.70
2019-04-25T12:10:08.548Z,0.90
2019-04-25T12:12:39.895Z,0.88
2019-04-25T12:15:14.924Z,0.70
2019-04-25T12:17:44.859Z,0.70
2019-04-25T12:20:14.558Z,0.68
2019-04-25T12:22:48.280Z,1.20
2019-04-25T12:25:17.788Z,0.80
2019-04-25T12:27:48.608Z,0.50
2019-04-25T12:30:18.201Z,0.68
2019-04-25T12:32:47.909Z,0.65
2019-04-25T12:35:20.211Z,0.53
2019-04-25T12:37:49.891Z,0.70
2019-04-25T12:40:21.251Z,0.50
2019-04-25T12:42:50.993Z,0.60
2019-04-25T12:45:22.031Z,0.50
2019-04-25T12:47:59.170Z,0.35
2019-04-25T12:50:29.189Z,0.50
2019-04-25T12:53:03.716Z,0.47
2019-04-25T12:55:34.222Z,0.70
2019-04-25T12:58:04.373Z,0.72
2019-04-25T13:00:34.233Z,0.75
2019-04-25T13:03:04.299Z,0.72
2019-04-25T13:05:36.572Z,0.60
2019-04-25T13:08:06.112Z,0.70
2019-04-25T13:10:35.914Z,0.40
2019-04-25T13:13:05.244Z,0.70
2019-04-25T13:15:34.707Z,0.78
2019-04-25T13:18:04.056Z,0.72
2019-04-25T13:20:33.396Z,0.60
2019-04-25T13:23:03.564Z,1.00
2019-04-25T13:25:34.694Z,0.70
2019-04-25T13:28:08.506Z,0.57
2019-04-25T13:30:42.538Z,0.60
2019-04-25T13:33:23.565Z,0.62
2019-04-25T13:35:58.833Z,0.42
2019-04-25T13:38:28.251Z,1.92
2019-04-25T13:40:58.254Z,1.05
2019-04-25T13:43:28.852Z,0.90
2019-04-25T13:45:58.204Z,0.80
2019-04-25T13:48:29.338Z,0.50
2019-04-25T13:50:58.810Z,0.65
2019-04-25T13:53:29.434Z,0.70
2019-04-25T13:55:59.091Z,12.88
2019-04-25T13:58:30.740Z,1.20
2019-04-25T14:01:12.338Z,0.50
2019-04-25T14:03:34.027Z,0.62
2019-04-25T14:06:04.761Z,0.50
2019-04-25T14:08:34.158Z,0.70
2019-04-25T14:11:05.155Z,0.50
2019-04-25T14:13:34.658Z,0.50
2019-04-25T14:16:25.481Z,0.70
2019-04-25T14:19:14.892Z,0.55
2019-04-25T14:21:44.299Z,0.60
2019-04-25T14:24:20.306Z,1.30
2019-04-25T14:26:44.683Z,0.70
2019-04-25T14:29:14.187Z,0.60
2019-04-25T14:31:47.906Z,0.47
2019-04-25T14:34:14.669Z,0.60
2019-04-25T14:36:44.358Z,0.60
2019-04-25T14:39:13.918Z,0.75
2019-04-25T14:41:43.347Z,0.88
2019-04-25T14:44:12.701Z,0.40
2019-04-25T14:46:42.165Z,0.50
2019-04-25T14:49:11.515Z,0.60
2019-04-25T14:51:40.951Z,0.50
2019-04-25T14:54:13.468Z,0.75
2019-04-25T14:56:50.191Z,0.55
2019-04-25T14:59:20.961Z,0.70
2019-04-25T15:01:50.848Z,0.70
2019-04-25T15:04:20.167Z,0.72
2019-04-25T15:06:49.503Z,0.70
2019-04-25T15:09:18.855Z,0.80
2019-04-25T15:11:48.273Z,1.40
2019-04-25T15:14:19.708Z,1.12
2019-04-25T15:16:49.058Z,1.00
2019-04-25T15:19:38.676Z,0.90
2019-04-25T15:22:20.176Z,1.10
2019-04-25T15:24:49.689Z,1.10
2019-04-25T15:27:19.094Z,1.87
2019-04-25T15:29:48.435Z,1.25
2019-04-25T15:32:19.483Z,1.50
2019-04-25T15:34:56.355Z,1.40
2019-04-25T15:37:30.493Z,1.02
2019-04-25T15:40:01.665Z,1.40
2019-04-25T15:42:41.913Z,1.30
2019-04-25T15:45:13.146Z,1.47
2019-04-25T15:47:45.528Z,1.42
2019-04-25T15:50:15.212Z,1.05
2019-04-25T15:52:45.002Z,3.00
2019-04-25T15:55:14.735Z,2.45
2019-04-25T15:57:44.113Z,1.90
2019-04-25T16:00:18.049Z,1.30
2019-04-25T16:02:47.448Z,1.35
2019-04-25T16:05:16.780Z,1.50
2019-04-25T16:07:46.103Z,3.80
2019-04-25T16:10:16.223Z,3.87
2019-04-25T16:12:45.553Z,1.47
2019-04-25T16:15:15.055Z,2.47
2019-04-25T16:17:44.375Z,2.40
2019-04-25T16:20:13.918Z,1.72
2019-04-25T16:22:43.242Z,1.15
2019-04-25T16:25:12.662Z,1.70
2019-04-25T16:27:42.055Z,1.35
2019-04-25T16:30:11.871Z,1.20
2019-04-25T16:32:41.397Z,1.62
2019-04-25T16:35:10.957Z,0.80
2019-04-25T16:37:41.306Z,0.55
2019-04-25T16:40:10.969Z,0.55
2019-04-25T16:42:41.752Z,0.60
2019-04-25T16:45:11.131Z,1.15
2019-04-25T16:47:40.513Z,1.90
2019-04-25T16:50:10.591Z,1.50
2019-04-25T16:52:39.927Z,1.20
2019-04-25T16:55:10.423Z,1.20
2019-04-25T16:57:39.789Z,1.00
2019-04-25T17:00:11.807Z,1.00
2019-04-25T17:02:45.283Z,0.80
2019-04-25T17:05:14.607Z,1.00
2019-04-25T17:07:43.958Z,0.95
2019-04-25T17:10:13.694Z,1.82
2019-04-25T17:12:43.087Z,1.20
2019-04-25T17:15:18.468Z,1.50
2019-04-25T17:17:51.914Z,1.00
2019-04-25T17:20:25.791Z,1.27
2019-04-25T17:22:55.124Z,1.00
2019-04-25T17:25:24.537Z,1.05
2019-04-25T17:27:58.877Z,1.10
2019-04-25T17:30:31.190Z,1.37
2019-04-25T17:33:05.239Z,1.40
2019-04-25T17:35:36.725Z,1.40
2019-04-25T17:38:10.654Z,1.17
2019-04-25T17:40:40.016Z,1.17
2019-04-25T17:43:11.160Z,1.05
2019-04-25T17:45:40.413Z,1.22
2019-04-25T17:48:11.021Z,1.10
2019-04-25T17:50:40.418Z,1.50
2019-04-25T17:53:09.780Z,1.30
2019-04-25T17:55:40.088Z,1.45
2019-04-25T17:58:09.427Z,1.50
2019-04-25T18:00:40.407Z,1.80
2019-04-25T18:03:10.961Z,1.85
2019-04-25T18:05:41.387Z,1.50
2019-04-25T18:08:11.615Z,1.70
2019-04-25T18:10:41.925Z,1.60
2019-04-25T18:13:11.543Z,1.57
2019-04-25T18:15:42.522Z,1.22
2019-04-25T18:18:13.502Z,1.62
2019-04-25T18:20:44.328Z,1.30
2019-04-25T18:23:31.559Z,1.40
2019-04-25T18:26:02.535Z,1.40
2019-04-25T18:28:42.343Z,1.37
2019-04-25T18:31:11.703Z,1.30
2019-04-25T18:33:41.798Z,1.75
2019-04-25T18:36:29.294Z,2.25
2019-04-25T18:39:00.306Z,1.22
2019-04-25T18:41:37.688Z,1.00
2019-04-25T18:44:14.589Z,1.25
2019-04-25T18:46:45.779Z,1.20
2019-04-25T18:49:15.113Z,1.90
2019-04-25T18:51:55.181Z,2.08
2019-04-25T18:54:19.521Z,2.33
2019-04-25T18:57:02.834Z,1.70
2019-04-25T18:59:42.363Z,1.27
2019-04-25T19:02:13.361Z,1.50
2019-04-25T19:04:59.946Z,1.70
2019-04-25T19:07:29.298Z,2.40
2019-04-25T19:09:58.635Z,1.35
2019-04-25T19:12:28.347Z,1.60
2019-04-25T19:14:57.710Z,1.50
2019-04-25T19:17:27.043Z,1.80
2019-04-25T19:19:56.433Z,4.00
2019-04-25T19:22:25.761Z,1.70
2019-04-25T19:24:55.092Z,2.02
2019-04-25T19:27:24.434Z,1.70
2019-04-25T19:29:54.764Z,1.50
2019-04-25T19:32:25.040Z,1.50
2019-04-25T19:34:54.452Z,2.80
2019-04-25T19:37:23.787Z,1.42
2019-04-25T19:40:12.712Z,1.20
2019-04-25T19:42:46.775Z,1.20
2019-04-25T19:45:16.329Z,1.20
2019-04-25T19:47:45.672Z,1.25
2019-04-25T19:50:15.147Z,1.30
2019-04-25T19:52:45.685Z,1.50
2019-04-25T19:55:15.044Z,1.30
2019-04-25T19:57:44.387Z,1.27
2019-04-25T20:00:13.931Z,1.37
2019-04-25T20:02:52.994Z,1.00
2019-04-25T20:05:30.104Z,0.80
2019-04-25T20:08:02.682Z,0.95
2019-04-25T20:10:34.805Z,1.20
2019-04-25T20:13:04.342Z,1.12
2019-04-25T20:15:33.667Z,1.27
2019-04-25T20:18:06.652Z,1.00
2019-04-25T20:20:36.263Z,1.00
2019-04-25T20:23:06.444Z,1.20
2019-04-25T20:25:35.841Z,1.52
2019-04-25T20:28:05.230Z,1.27
2019-04-25T20:30:34.569Z,1.10
2019-04-25T20:33:03.971Z,1.02
2019-04-25T20:35:33.375Z,1.40
2019-04-25T20:38:02.785Z,1.10
2019-04-25T20:40:32.130Z,1.10
2019-04-25T20:43:01.467Z,1.17
2019-04-25T20:45:30.921Z,0.93
2019-04-25T20:48:00.251Z,1.07
2019-04-25T20:50:29.654Z,1.10
2019-04-25T20:52:58.989Z,1.30
2019-04-25T20:55:28.347Z,1.30
2019-04-25T20:57:57.895Z,1.50
2019-04-25T21:00:43.864Z,1.30
2019-04-25T21:03:13.187Z,1.27
2019-04-25T21:05:43.084Z,1.10
2019-04-25T21:08:12.499Z,1.10
2019-04-25T21:10:41.913Z,1.10
2019-04-25T21:13:12.946Z,1.10
2019-04-25T21:15:46.947Z,1.30
2019-04-25T21:18:23.847Z,1.40
2019-04-25T21:20:53.350Z,1.52
2019-04-25T21:23:22.739Z,1.40
2019-04-25T21:25:52.909Z,1.65
2019-04-25T21:28:22.424Z,1.32
2019-04-25T21:30:53.090Z,1.50
2019-04-25T21:33:22.498Z,1.70
2019-04-25T21:35:53.267Z,1.40
2019-04-25T21:38:23.125Z,1.90
2019-04-25T21:41:05.698Z,1.42
2019-04-25T21:43:43.256Z,1.60
2019-04-25T21:46:12.992Z,1.72
2019-04-25T21:48:42.635Z,1.77
2019-04-25T21:51:30.082Z,2.15
2019-04-25T21:54:01.405Z,1.80
2019-04-25T21:56:31.173Z,1.90
2019-04-25T21:59:01.975Z,2.08
2019-04-25T22:01:34.521Z,2.20
2019-04-25T22:04:05.462Z,2.20
2019-04-25T22:06:35.183Z,2.02
2019-04-25T22:09:08.281Z,1.80
2019-04-25T22:11:37.799Z,2.50
2019-04-25T22:14:09.451Z,2.15
2019-04-25T22:16:39.248Z,2.30
2019-04-25T22:19:11.479Z,2.20
2019-04-25T22:21:41.173Z,2.40
2019-04-25T22:24:14.358Z,2.50
2019-04-25T22:26:41.626Z,2.47
2019-04-25T22:29:11.427Z,2.60
2019-04-25T22:31:48.926Z,2.80
2019-04-25T22:34:20.164Z,3.00
2019-04-25T22:36:49.635Z,2.70
2019-04-25T22:39:19.490Z,2.77
2019-04-25T22:41:50.011Z,2.92
2019-04-25T22:44:22.603Z,2.95
2019-04-25T22:46:54.154Z,3.47
2019-04-25T22:49:23.571Z,3.10
2019-04-25T22:51:53.034Z,3.35
2019-04-25T22:54:24.380Z,3.00
2019-04-25T22:56:53.795Z,3.20
2019-04-25T22:59:23.605Z,3.27
2019-04-25T23:01:54.651Z,3.50
2019-04-25T23:04:38.101Z,3.20
2019-04-25T23:07:07.962Z,3.10
2019-04-25T23:09:39.001Z,3.40
2019-04-25T23:12:08.935Z,3.45
2019-04-25T23:14:38.657Z,3.22
2019-04-25T23:17:11.973Z,3.65
2019-04-25T23:19:41.380Z,3.62
2019-04-25T23:22:11.546Z,3.52
2019-04-25T23:24:52.000Z,3.35
2019-04-25T23:27:23.050Z,4.12
2019-04-25T23:29:52.473Z,3.55
2019-04-25T23:32:22.392Z,4.42
2019-04-25T23:34:51.776Z,4.00
2019-04-25T23:37:21.222Z,4.03
2019-04-25T23:39:50.672Z,3.75
2019-04-25T23:42:20.062Z,4.28
2019-04-25T23:44:49.790Z,4.42
2019-04-25T23:47:20.202Z,4.22
2019-04-25T23:49:49.575Z,4.17
2019-04-25T23:52:21.311Z,4.12
2019-04-25T23:54:50.660Z,4.33
2019-04-25T23:57:20.399Z,4.37
2019-04-25T23:59:49.827Z,4.50
